createdAt,value
2023-03-31T00:01:24.470Z,10.06
2023-03-31T00:04:28.515Z,10.08
2023-03-31T00:07:31.065Z,10.01
2023-03-31T00:10:35.036Z,10.08
2023-03-31T00:13:38.113Z,10.07
2023-03-31T00:16:41.192Z,10.01
2023-03-31T00:19:43.745Z,10.02
2023-03-31T00:22:46.856Z,9.93
2023-03-31T00:25:49.324Z,9.88
2023-03-31T00:28:53.011Z,9.90
2023-03-31T00:31:56.139Z,9.88
2023-03-31T00:34:58.968Z,9.87
2023-03-31T00:38:01.529Z,9.86
2023-03-31T00:41:04.699Z,9.80
2023-03-31T00:44:23.059Z,9.87
2023-03-31T00:47:27.160Z,9.91
2023-03-31T00:50:33.289Z,9.93
2023-03-31T00:53:37.105Z,9.90
2023-03-31T00:56:42.337Z,9.90
2023-03-31T00:59:53.836Z,9.83
2023-03-31T01:02:59.013Z,9.79
2023-03-31T01:06:06.498Z,9.74
2023-03-31T01:09:10.010Z,9.69
2023-03-31T01:12:14.160Z,9.69
2023-03-31T01:15:16.808Z,9.62
2023-03-31T01:18:21.795Z,9.62
2023-03-31T01:21:30.637Z,9.70
2023-03-31T01:24:38.014Z,9.67
2023-03-31T01:28:02.697Z,9.73
2023-03-31T01:31:31.824Z,9.78
2023-03-31T01:34:59.173Z,9.87
2023-03-31T01:38:02.277Z,9.76
2023-03-31T01:41:11.628Z,9.67
2023-03-31T01:44:43.699Z,9.68
2023-03-31T01:48:04.440Z,9.61
2023-03-31T01:51:13.611Z,9.61
2023-03-31T01:54:23.160Z,9.64
2023-03-31T01:57:37.669Z,9.65
2023-03-31T02:01:03.664Z,9.65
2023-03-31T02:04:17.503Z,9.69
2023-03-31T02:07:34.571Z,9.61
2023-03-31T02:10:39.528Z,9.54
2023-03-31T02:13:46.951Z,9.53
2023-03-31T02:16:54.061Z,9.52
2023-03-31T02:20:06.334Z,9.60
2023-03-31T02:23:10.808Z,9.68
2023-03-31T02:26:16.382Z,9.70
2023-03-31T02:29:19.665Z,9.65
2023-03-31T02:32:35.264Z,9.61
2023-03-31T02:35:37.913Z,9.61
2023-03-31T02:38:45.398Z,9.56
2023-03-31T02:41:47.845Z,9.58
2023-03-31T02:44:50.733Z,9.52
2023-03-31T02:47:54.131Z,9.50
2023-03-31T02:51:12.387Z,9.51
2023-03-31T02:54:58.318Z,9.50
2023-03-31T02:58:12.507Z,9.49
2023-03-31T03:01:33.102Z,9.48
2023-03-31T03:05:02.269Z,9.39
2023-03-31T03:08:17.931Z,9.35
2023-03-31T03:11:56.739Z,9.21
2023-03-31T03:15:13.915Z,9.10
2023-03-31T03:18:16.950Z,9.10
2023-03-31T03:21:19.503Z,9.00
2023-03-31T03:24:23.004Z,8.93
2023-03-31T03:27:25.497Z,8.85
2023-03-31T03:30:28.523Z,8.84
2023-03-31T03:33:31.062Z,8.77
2023-03-31T03:36:33.945Z,8.71
2023-03-31T03:39:36.457Z,8.65
2023-03-31T03:42:39.228Z,8.66
2023-03-31T03:45:41.726Z,8.53
2023-03-31T03:48:44.611Z,8.49
2023-03-31T03:51:47.273Z,8.47
2023-03-31T03:54:50.287Z,8.40
2023-03-31T03:57:52.812Z,8.37
2023-03-31T04:00:57.075Z,8.33
2023-03-31T04:04:00.108Z,8.46
2023-03-31T04:07:02.626Z,8.33
2023-03-31T04:10:06.128Z,8.33
2023-03-31T04:13:08.706Z,8.30
2023-03-31T04:16:12.035Z,8.28
2023-03-31T04:19:17.745Z,8.26
2023-03-31T04:22:20.883Z,8.24
2023-03-31T04:25:23.762Z,8.20
2023-03-31T04:28:34.998Z,8.24
2023-03-31T04:31:42.814Z,8.24
2023-03-31T04:34:46.578Z,8.14
2023-03-31T04:37:50.176Z,8.10
2023-03-31T04:40:53.481Z,8.12
2023-03-31T04:43:56.095Z,8.05
2023-03-31T04:47:02.898Z,8.02
2023-03-31T04:50:06.515Z,7.94
2023-03-31T04:53:09.492Z,8.03
2023-03-31T04:56:12.355Z,7.88
2023-03-31T04:59:15.178Z,7.82
2023-03-31T05:02:25.190Z,7.83
2023-03-31T05:05:28.591Z,7.91
2023-03-31T05:08:31.424Z,7.81
2023-03-31T05:11:34.390Z,7.82
2023-03-31T05:14:36.901Z,7.95
2023-03-31T05:17:40.043Z,8.03
2023-03-31T05:20:42.994Z,8.01
2023-03-31T05:23:46.601Z,7.95
2023-03-31T05:26:52.825Z,7.87
2023-03-31T05:29:56.010Z,7.89
2023-03-31T05:32:58.646Z,7.91
2023-03-31T05:36:01.554Z,7.98
2023-03-31T05:39:08.076Z,8.15
2023-03-31T05:42:11.037Z,8.17
2023-03-31T05:45:13.801Z,8.21
2023-03-31T05:48:16.837Z,8.32
2023-03-31T05:51:19.360Z,8.46
2023-03-31T05:54:22.754Z,8.53
2023-03-31T05:57:25.527Z,8.77
2023-03-31T06:00:28.661Z,8.89
2023-03-31T06:03:33.248Z,9.09
2023-03-31T06:06:38.171Z,9.26
2023-03-31T06:09:41.212Z,9.48
2023-03-31T06:12:43.729Z,9.70
2023-03-31T06:15:57.124Z,9.87
2023-03-31T06:18:59.734Z,10.04
2023-03-31T06:22:02.659Z,10.16
2023-03-31T06:25:05.776Z,10.28
2023-03-31T06:28:08.749Z,10.43
2023-03-31T06:31:14.072Z,10.57
2023-03-31T06:34:18.484Z,10.63
2023-03-31T06:37:22.667Z,10.86
2023-03-31T06:40:25.659Z,11.01
2023-03-31T06:43:28.489Z,11.09
2023-03-31T06:46:31.449Z,11.19
2023-03-31T06:49:34.401Z,11.27
2023-03-31T06:52:37.383Z,11.32
2023-03-31T06:55:40.288Z,11.46
2023-03-31T06:58:43.156Z,11.53
2023-03-31T07:01:46.095Z,11.67
2023-03-31T07:04:48.963Z,11.79
2023-03-31T07:07:51.485Z,11.81
2023-03-31T07:10:57.970Z,11.96
2023-03-31T07:14:00.571Z,11.99
2023-03-31T07:17:03.783Z,11.95
2023-03-31T07:20:12.629Z,12.15
2023-03-31T07:23:15.857Z,12.22
2023-03-31T07:26:18.635Z,12.33
2023-03-31T07:29:21.513Z,12.66
2023-03-31T07:32:28.933Z,12.81
2023-03-31T07:35:32.100Z,12.87
2023-03-31T07:38:34.760Z,13.07
2023-03-31T07:41:37.812Z,13.10
2023-03-31T07:44:40.615Z,13.32
2023-03-31T07:47:44.831Z,13.46
2023-03-31T07:50:48.521Z,13.65
2023-03-31T07:53:52.772Z,13.82
2023-03-31T07:56:55.488Z,13.96
2023-03-31T07:59:58.355Z,14.15
2023-03-31T08:03:01.151Z,14.32
2023-03-31T08:06:04.197Z,14.59
2023-03-31T08:09:09.565Z,14.70
2023-03-31T08:12:13.078Z,14.94
2023-03-31T08:15:16.495Z,15.11
2023-03-31T08:18:20.098Z,15.27
2023-03-31T08:21:24.603Z,15.43
2023-03-31T08:24:27.635Z,15.59
2023-03-31T08:27:33.592Z,15.67
2023-03-31T08:30:42.708Z,15.83
2023-03-31T08:33:46.686Z,15.93
2023-03-31T08:36:49.540Z,16.03
2023-03-31T08:39:52.361Z,16.17
2023-03-31T08:43:23.395Z,16.38
2023-03-31T08:46:27.804Z,16.45
2023-03-31T08:49:41.714Z,16.56
2023-03-31T08:52:51.010Z,16.64
2023-03-31T08:55:55.508Z,16.72
2023-03-31T08:59:02.206Z,16.83
2023-03-31T09:02:57.657Z,16.93
2023-03-31T09:06:23.672Z,17.06
2023-03-31T09:09:48.885Z,17.17
2023-03-31T09:12:58.088Z,17.31
2023-03-31T09:16:17.007Z,17.48
2023-03-31T09:19:38.308Z,17.65
2023-03-31T09:22:48.236Z,17.77
2023-03-31T09:25:51.432Z,17.94
2023-03-31T09:28:57.535Z,17.99
2023-03-31T09:32:03.094Z,18.05
2023-03-31T09:35:21.625Z,18.11
2023-03-31T09:38:24.379Z,18.23
2023-03-31T09:41:27.709Z,18.48
2023-03-31T09:44:40.033Z,18.51
2023-03-31T09:47:45.383Z,18.66
2023-03-31T09:50:55.071Z,18.49
2023-03-31T09:54:22.044Z,18.58
2023-03-31T09:57:33.756Z,18.74
2023-03-31T10:00:41.446Z,18.92
2023-03-31T10:03:49.570Z,19.07
2023-03-31T10:06:53.591Z,19.17
2023-03-31T10:09:57.394Z,19.26
2023-03-31T10:13:01.719Z,19.26
2023-03-31T10:16:08.978Z,19.31
2023-03-31T10:19:13.447Z,19.26
2023-03-31T10:22:27.713Z,19.12
2023-03-31T10:25:30.926Z,19.15
2023-03-31T10:28:35.680Z,19.21
2023-03-31T10:31:38.941Z,19.42
2023-03-31T10:34:42.713Z,19.50
2023-03-31T10:37:45.428Z,19.66
2023-03-31T10:40:54.528Z,19.67
2023-03-31T10:44:02.349Z,19.78
2023-03-31T10:47:16.407Z,19.61
2023-03-31T10:50:18.917Z,19.54
2023-03-31T10:53:22.172Z,19.37
2023-03-31T10:56:42.544Z,19.44
2023-03-31T11:00:09.041Z,19.60
2023-03-31T11:03:33.139Z,19.74
2023-03-31T11:07:19.502Z,19.79
2023-03-31T11:10:41.831Z,19.97
2023-03-31T11:14:03.175Z,19.92
2023-03-31T11:17:27.102Z,19.93
2023-03-31T11:20:54.093Z,20.00
2023-03-31T11:24:18.364Z,20.13
2023-03-31T11:27:21.228Z,20.32
2023-03-31T11:30:56.897Z,20.30
2023-03-31T11:34:18.370Z,20.14
2023-03-31T11:37:41.703Z,20.13
2023-03-31T11:40:50.464Z,20.36
2023-03-31T11:44:03.896Z,20.35
2023-03-31T11:47:09.837Z,20.12
2023-03-31T11:50:38.596Z,20.19
2023-03-31T11:53:43.334Z,20.12
2023-03-31T11:56:46.388Z,20.13
2023-03-31T11:59:56.108Z,20.08
2023-03-31T12:03:10.463Z,20.09
2023-03-31T12:06:19.977Z,20.35
2023-03-31T12:09:33.144Z,20.64
2023-03-31T12:12:41.982Z,20.73
2023-03-31T12:15:47.921Z,20.78
2023-03-31T12:18:56.913Z,21.00
2023-03-31T12:22:24.305Z,20.86
2023-03-31T12:25:34.596Z,20.81
2023-03-31T12:28:38.297Z,20.64
2023-03-31T12:31:44.615Z,20.41
2023-03-31T12:35:10.447Z,20.50
2023-03-31T12:38:25.793Z,20.47
2023-03-31T12:41:52.845Z,20.47
2023-03-31T12:45:20.618Z,20.35
2023-03-31T12:48:42.192Z,20.43
2023-03-31T12:52:04.213Z,20.70
2023-03-31T12:55:33.495Z,20.70
2023-03-31T12:58:42.238Z,20.96
2023-03-31T13:02:09.974Z,20.99
2023-03-31T13:05:38.237Z,20.91
2023-03-31T13:08:50.068Z,20.73
2023-03-31T13:11:53.186Z,20.71
2023-03-31T13:15:01.684Z,20.58
2023-03-31T13:18:06.642Z,20.37
2023-03-31T13:21:09.413Z,20.38
2023-03-31T13:24:14.542Z,20.44
2023-03-31T13:27:35.700Z,20.61
2023-03-31T13:30:38.731Z,20.72
2023-03-31T13:33:45.812Z,20.68
2023-03-31T13:36:56.270Z,20.69
2023-03-31T13:40:09.239Z,20.43
2023-03-31T13:43:23.773Z,20.40
2023-03-31T13:46:58.588Z,20.13
2023-03-31T13:50:16.363Z,19.95
2023-03-31T13:53:45.347Z,19.87
2023-03-31T13:57:31.822Z,19.77
2023-03-31T14:01:07.624Z,19.58
2023-03-31T14:04:34.943Z,19.66
2023-03-31T14:07:50.939Z,19.48
2023-03-31T14:10:54.062Z,19.40
2023-03-31T14:14:06.788Z,19.22
2023-03-31T14:17:11.442Z,19.26
2023-03-31T14:20:21.074Z,19.22
2023-03-31T14:23:35.646Z,19.09
2023-03-31T14:26:42.317Z,18.97
2023-03-31T14:29:51.586Z,18.87
2023-03-31T14:33:15.325Z,18.95
2023-03-31T14:36:38.190Z,18.81
2023-03-31T14:39:44.658Z,19.13
2023-03-31T14:42:50.273Z,19.32
2023-03-31T14:46:04.779Z,19.50
2023-03-31T14:49:16.440Z,19.77
2023-03-31T14:52:21.443Z,19.72
2023-03-31T14:55:35.611Z,19.59
2023-03-31T14:58:50.042Z,19.67
2023-03-31T15:01:53.099Z,19.70
2023-03-31T15:04:56.661Z,19.46
2023-03-31T15:08:02.771Z,19.47
2023-03-31T15:11:12.917Z,19.42
2023-03-31T15:14:16.970Z,19.42
2023-03-31T15:17:26.566Z,19.23
2023-03-31T15:20:32.097Z,19.22
2023-03-31T15:23:40.679Z,18.82
2023-03-31T15:27:01.023Z,18.95
2023-03-31T15:30:08.467Z,18.82
2023-03-31T15:33:19.823Z,18.78
2023-03-31T15:36:22.790Z,18.81
2023-03-31T15:39:27.381Z,18.74
2023-03-31T15:42:29.910Z,18.47
2023-03-31T15:45:39.118Z,18.34
2023-03-31T15:48:55.545Z,18.21
2023-03-31T15:52:00.621Z,17.88
2023-03-31T15:55:23.051Z,17.82
2023-03-31T15:58:56.469Z,17.72
2023-03-31T16:02:01.276Z,17.81
2023-03-31T16:05:10.425Z,17.56
2023-03-31T16:08:22.548Z,17.53
2023-03-31T16:11:35.985Z,17.43
2023-03-31T16:14:47.734Z,17.50
2023-03-31T16:17:53.142Z,17.35
2023-03-31T16:21:00.046Z,17.25
2023-03-31T16:24:04.449Z,17.04
2023-03-31T16:27:09.340Z,16.95
2023-03-31T16:30:32.838Z,16.99
2023-03-31T16:33:56.681Z,16.92
2023-03-31T16:36:59.859Z,16.93
2023-03-31T16:40:02.603Z,16.78
2023-03-31T16:43:28.887Z,16.71
2023-03-31T16:46:31.458Z,16.47
2023-03-31T16:49:34.776Z,16.30
2023-03-31T16:52:37.428Z,16.28
2023-03-31T16:55:41.091Z,16.27
2023-03-31T16:58:43.952Z,16.20
2023-03-31T17:01:47.040Z,16.08
2023-03-31T17:04:50.773Z,16.13
2023-03-31T17:07:55.154Z,16.04
2023-03-31T17:11:10.957Z,16.00
2023-03-31T17:14:14.049Z,15.93
2023-03-31T17:17:18.006Z,15.83
2023-03-31T17:20:21.440Z,15.87
2023-03-31T17:23:24.034Z,15.85
2023-03-31T17:26:27.198Z,15.89
2023-03-31T17:29:29.981Z,15.83
2023-03-31T17:32:33.216Z,15.57
2023-03-31T17:35:35.939Z,15.72
2023-03-31T17:38:39.992Z,15.60
2023-03-31T17:41:43.075Z,15.45
2023-03-31T17:44:47.886Z,15.43
2023-03-31T17:47:51.748Z,15.40
2023-03-31T17:50:56.106Z,15.42
2023-03-31T17:54:01.476Z,15.31
2023-03-31T17:57:07.355Z,15.23
2023-03-31T18:00:11.318Z,15.24
2023-03-31T18:03:14.374Z,15.18
2023-03-31T18:06:19.668Z,15.29
2023-03-31T18:09:23.061Z,15.18
2023-03-31T18:12:26.268Z,15.14
2023-03-31T18:15:29.379Z,15.06
2023-03-31T18:18:32.749Z,15.04
2023-03-31T18:21:38.592Z,15.03
2023-03-31T18:24:41.578Z,15.03
2023-03-31T18:27:47.346Z,15.10
2023-03-31T18:30:50.350Z,15.06
2023-03-31T18:33:54.810Z,14.89
2023-03-31T18:36:58.063Z,14.90
2023-03-31T18:40:01.704Z,14.94
2023-03-31T18:43:06.094Z,14.84
2023-03-31T18:46:10.723Z,14.86
2023-03-31T18:49:14.646Z,14.79
2023-03-31T18:52:17.885Z,14.86
2023-03-31T18:55:21.077Z,14.71
2023-03-31T18:58:26.064Z,14.56
2023-03-31T19:01:29.442Z,14.59
2023-03-31T19:04:33.102Z,14.62
2023-03-31T19:07:36.402Z,14.50
2023-03-31T19:10:39.812Z,14.56
2023-03-31T19:13:44.002Z,14.31
2023-03-31T19:16:47.298Z,14.40
2023-03-31T19:19:50.312Z,14.45
2023-03-31T19:22:53.729Z,14.44
2023-03-31T19:25:58.165Z,14.35
2023-03-31T19:29:03.170Z,14.29
2023-03-31T19:32:06.390Z,14.30
2023-03-31T19:35:11.369Z,14.08
2023-03-31T19:38:15.294Z,13.97
2023-03-31T19:41:18.732Z,13.91
2023-03-31T19:44:21.640Z,13.74
2023-03-31T19:47:25.868Z,13.64
2023-03-31T19:50:28.904Z,13.50
2023-03-31T19:53:32.962Z,13.40
2023-03-31T19:56:35.819Z,13.37
2023-03-31T19:59:39.393Z,13.11
2023-03-31T20:02:42.730Z,13.08
2023-03-31T20:05:46.200Z,12.97
2023-03-31T20:08:55.659Z,12.80
2023-03-31T20:11:58.771Z,12.72
2023-03-31T20:15:01.859Z,12.46
2023-03-31T20:18:05.735Z,12.34
2023-03-31T20:21:14.679Z,12.23
2023-03-31T20:24:18.903Z,12.31
2023-03-31T20:27:26.253Z,11.99
2023-03-31T20:30:29.489Z,11.96
2023-03-31T20:33:32.710Z,11.93
2023-03-31T20:36:35.625Z,11.69
2023-03-31T20:39:38.553Z,11.62
2023-03-31T20:42:41.821Z,11.37
2023-03-31T20:45:44.359Z,11.40
2023-03-31T20:48:49.553Z,11.36
2023-03-31T20:51:52.042Z,11.39
2023-03-31T20:54:54.929Z,11.40
2023-03-31T20:57:58.305Z,11.23
2023-03-31T21:01:01.296Z,11.18
2023-03-31T21:04:05.764Z,11.12
2023-03-31T21:07:08.557Z,10.99
2023-03-31T21:10:12.045Z,11.06
2023-03-31T21:13:16.443Z,10.92
2023-03-31T21:16:19.829Z,10.98
2023-03-31T21:19:23.122Z,10.98
2023-03-31T21:22:27.449Z,10.96
2023-03-31T21:25:32.555Z,11.02
2023-03-31T21:28:36.905Z,11.05
2023-03-31T21:31:41.602Z,10.94
2023-03-31T21:34:44.181Z,10.85
2023-03-31T21:37:47.551Z,10.85
2023-03-31T21:40:55.545Z,10.76
2023-03-31T21:44:00.908Z,10.79
2023-03-31T21:47:05.167Z,10.83
2023-03-31T21:50:08.553Z,10.80
2023-03-31T21:53:11.066Z,10.79
2023-03-31T21:56:14.129Z,10.84
2023-03-31T21:59:16.940Z,10.90
2023-03-31T22:02:19.995Z,10.94
2023-03-31T22:05:23.143Z,10.91
2023-03-31T22:08:29.610Z,10.92
2023-03-31T22:11:32.514Z,10.89
2023-03-31T22:14:37.768Z,10.92
2023-03-31T22:17:40.710Z,10.97
2023-03-31T22:20:44.353Z,10.97
2023-03-31T22:23:48.351Z,11.02
2023-03-31T22:26:50.939Z,10.97
2023-03-31T22:29:53.790Z,11.07
2023-03-31T22:32:56.723Z,11.31
2023-03-31T22:35:59.753Z,11.10
2023-03-31T22:39:02.375Z,11.07
2023-03-31T22:42:05.252Z,11.25
2023-03-31T22:45:08.284Z,11.30
2023-03-31T22:48:11.140Z,11.08
2023-03-31T22:51:14.485Z,11.12
2023-03-31T22:54:17.474Z,11.25
2023-03-31T22:57:19.982Z,11.30
2023-03-31T23:00:22.961Z,11.07
2023-03-31T23:03:26.277Z,11.05
2023-03-31T23:06:29.374Z,11.07
2023-03-31T23:09:32.240Z,11.02
2023-03-31T23:12:35.330Z,11.25
2023-03-31T23:15:38.026Z,11.02
2023-03-31T23:18:44.446Z,11.00
2023-03-31T23:21:47.677Z,10.97
2023-03-31T23:24:52.633Z,10.97
2023-03-31T23:27:55.131Z,10.97
2023-03-31T23:30:58.100Z,10.90
2023-03-31T23:34:01.288Z,10.84
2023-03-31T23:37:11.293Z,11.10
2023-03-31T23:40:13.899Z,10.82
2023-03-31T23:43:16.753Z,10.69
2023-03-31T23:46:19.658Z,10.71
2023-03-31T23:49:22.641Z,10.68
2023-03-31T23:52:25.360Z,10.66
2023-03-31T23:55:29.198Z,10.66
2023-03-31T23:58:32.452Z,10.66
